Time;durP1;ratioP1;P1;durP2;ratioP2;P2;SDS_P1;SDS_P2;PMS_P1;PMS_P2;Temp;Humidity;BMP_temperature;BMP_pressure;BME280_temperature;BME280_humidity;BME280_pressure;Samples;Min_cycle;Max_cycle;Signal;HPM_P1;HPM_P2
2022/07/22 00:11:36;;;;;;;20.80;10.40;;;;;;;22.79;78.29;100366.58;659459;1279;138576;-85
2022/07/22 00:26:40;;;;;;;16.30;8.50;;;;;;;22.52;83.42;100367.05;658967;1280;138813;-85
2022/07/22 00:41:43;;;;;;;13.00;7.00;;;;;;;22.10;85.60;100365.95;658849;1280;139146;-85
2022/07/22 00:56:49;;;;;;;12.30;7.70;;;;;;;22.20;84.92;100365.08;659436;1279;140466;-86
2022/07/22 01:11:52;;;;;;;15.50;7.60;;;;;;;21.96;86.49;100355.14;659572;1279;139629;-86
2022/07/22 01:26:55;;;;;;;16.50;8.10;;;;;;;21.80;87.58;100356.89;659198;1280;141178;-85
2022/07/22 01:41:58;;;;;;;10.70;7.30;;;;;;;21.43;89.67;100360.01;658740;1278;139189;-86
2022/07/22 01:57:02;;;;;;;20.80;10.00;;;;;;;21.29;89.15;100362.01;659574;1279;140603;-86
2022/07/22 02:12:07;;;;;;;17.00;8.40;;;;;;;21.14;89.46;100345.45;659969;1280;139611;-86
2022/07/22 02:27:15;;;;;;;16.20;10.20;;;;;;;21.06;91.27;100341.77;659355;1280;140496;-86
2022/07/22 02:42:19;;;;;;;14.20;8.10;;;;;;;20.75;92.15;100337.05;659326;1278;139798;-86
2022/07/22 02:57:23;;;;;;;14.90;8.70;;;;;;;20.75;92.60;100344.48;659280;1278;139855;-85
2022/07/22 03:12:27;;;;;;;10.50;6.80;;;;;;;20.75;93.07;100339.69;658719;1280;140251;-85
2022/07/22 03:27:30;;;;;;;16.60;8.30;;;;;;;20.90;93.93;100329.46;660153;1279;139577;-86
2022/07/22 03:42:34;;;;;;;18.30;9.80;;;;;;;21.02;94.29;100314.88;658826;1280;139069;-86
2022/07/22 03:57:39;;;;;;;14.50;8.40;;;;;;;21.21;94.75;100321.61;658062;1280;139309;-86
2022/07/22 04:12:48;;;;;;;16.80;8.70;;;;;;;21.50;95.17;100348.68;659010;1280;139408;-87
2022/07/22 04:40:14;;;;;;;15.80;8.80;;;;;;;21.96;93.75;100358.48;644593;1301;545200;-86
2022/07/22 04:55:18;;;;;;;12.20;8.30;;;;;;;22.45;92.44;100364.63;654117;1289;139510;-87
2022/07/22 05:10:21;;;;;;;15.80;9.00;;;;;;;22.96;90.13;100348.96;652706;1287;138558;-88
2022/07/22 05:25:25;;;;;;;13.90;9.40;;;;;;;23.43;89.19;100337.52;655911;1287;139736;-88
2022/07/22 05:40:28;;;;;;;17.30;10.00;;;;;;;23.96;87.96;100343.34;652899;1287;140076;-88
2022/07/22 05:55:32;;;;;;;12.50;9.00;;;;;;;24.49;87.64;100347.52;650006;1289;139209;-88
2022/07/22 06:10:36;;;;;;;21.50;12.70;;;;;;;25.00;87.07;100362.37;650723;1288;139912;-88
2022/07/22 06:25:40;;;;;;;15.70;11.60;;;;;;;25.43;88.40;100379.92;650459;1287;140183;-88
2022/07/22 06:41:05;;;;;;;18.40;12.90;;;;;;;26.10;87.02;100398.88;651852;1289;138711;-87
2022/07/22 06:56:29;;;;;;;18.20;13.10;;;;;;;26.32;86.67;100417.05;651431;1289;139397;-86
2022/07/22 07:11:34;;;;;;;19.40;15.00;;;;;;;26.35;89.18;100471.31;651169;1289;140263;-88
2022/07/22 07:26:42;;;;;;;16.90;12.90;;;;;;;26.68;89.09;100480.35;652918;1289;139618;-86
2022/07/22 07:41:46;;;;;;;18.00;14.20;;;;;;;27.37;86.36;100459.34;651039;1289;140723;-86
2022/07/22 07:56:57;;;;;;;18.30;12.30;;;;;;;28.53;81.94;100438.20;651615;1289;140788;-86
2022/07/22 08:12:04;;;;;;;11.40;9.00;;;;;;;29.74;76.41;100416.73;649762;1289;138455;-87
2022/07/22 08:27:26;;;;;;;10.80;7.90;;;;;;;31.04;70.13;100414.52;653932;1289;138508;-87
2022/07/22 08:42:36;;;;;;;12.00;9.40;;;;;;;31.71;66.94;100413.30;652700;1289;139056;-89
2022/07/22 08:57:45;;;;;;;10.80;8.50;;;;;;;32.20;65.22;100405.45;652306;1289;139662;-87
2022/07/22 09:12:59;;;;;;;10.40;6.00;;;;;;;32.67;64.73;100406.78;651926;1289;138473;-87
2022/07/22 09:28:23;;;;;;;11.40;6.60;;;;;;;33.59;61.57;100417.98;650848;1289;138091;-86
2022/07/22 09:43:49;;;;;;;12.40;7.20;;;;;;;33.93;60.92;100431.00;651789;1289;138950;-87
2022/07/22 09:58:53;;;;;;;9.90;6.80;;;;;;;34.42;59.91;100444.25;650534;1289;138326;-87
2022/07/22 10:14:03;;;;;;;8.10;6.20;;;;;;;34.72;57.75;100458.33;650909;1289;139803;-86
2022/07/22 10:29:32;;;;;;;10.20;7.10;;;;;;;35.17;57.00;100453.67;649737;1289;139252;-85
2022/07/22 10:44:49;;;;;;;9.50;7.50;;;;;;;35.49;56.37;100456.25;657552;1289;139596;-86
2022/07/22 11:00:00;;;;;;;8.60;7.60;;;;;;;34.47;57.25;100458.27;649878;1289;138803;-89
2022/07/22 11:15:06;;;;;;;9.00;7.10;;;;;;;34.15;58.28;100460.80;650390;1289;140057;-87
2022/07/22 11:30:10;;;;;;;9.00;6.90;;;;;;;34.32;56.76;100464.15;649685;1289;138652;-85
2022/07/22 11:45:13;;;;;;;9.80;6.90;;;;;;;35.03;56.12;100471.02;650089;1289;138047;-87
2022/07/22 12:00:18;;;;;;;6.90;5.60;;;;;;;35.59;54.27;100473.16;650210;1289;139382;-90
2022/07/22 12:15:21;;;;;;;8.90;7.30;;;;;;;36.05;53.07;100462.69;649379;1288;139558;-89
2022/07/22 12:30:45;;;;;;;9.30;7.20;;;;;;;35.51;51.58;100451.52;649693;1289;139184;-89
2022/07/22 12:45:49;;;;;;;7.40;5.90;;;;;;;35.27;52.21;100438.95;648964;1289;138289;-88
2022/07/22 13:00:55;;;;;;;6.20;5.60;;;;;;;36.83;51.40;100418.77;651920;1289;139382;-88
2022/07/22 13:15:58;;;;;;;6.70;5.00;;;;;;;36.97;49.63;100408.20;657311;1276;139875;-86
2022/07/22 13:31:02;;;;;;;8.00;4.80;;;;;;;36.50;47.46;100400.73;656830;1276;137973;-87
2022/07/22 13:46:06;;;;;;;6.30;4.80;;;;;;;36.32;47.68;100392.16;657396;1276;138414;-91
2022/07/22 14:01:10;;;;;;;4.60;4.20;;;;;;;36.37;46.38;100384.08;658848;1277;138165;-84
2022/07/22 14:31:55;;;;;;;6.40;4.70;;;;;;;35.97;45.43;100373.30;657733;1276;138529;-86
2022/07/22 14:46:59;;;;;;;5.50;4.40;;;;;;;35.50;46.55;100367.83;658097;1276;138352;-85
2022/07/22 15:02:02;;;;;;;6.80;4.40;;;;;;;34.76;46.00;100362.61;657785;1276;137989;-85
2022/07/22 15:17:06;;;;;;;6.80;4.90;;;;;;;34.71;46.94;100357.19;660106;1277;138110;-86
2022/07/22 15:32:09;;;;;;;7.30;5.10;;;;;;;34.24;48.63;100345.95;658032;1276;138522;-86
2022/07/22 15:47:12;;;;;;;6.00;5.00;;;;;;;34.23;50.23;100354.47;657696;1276;139267;-87
2022/07/22 16:02:16;;;;;;;6.80;5.60;;;;;;;33.88;51.67;100354.80;657435;1277;138042;-85
2022/07/22 16:17:20;;;;;;;7.10;6.10;;;;;;;33.58;52.65;100356.28;656337;1277;138361;-85
2022/07/22 16:32:24;;;;;;;7.30;5.60;;;;;;;33.56;53.14;100350.43;657780;1277;139970;-85
2022/07/22 16:47:29;;;;;;;7.00;5.20;;;;;;;32.89;53.44;100350.35;658094;1279;294735;-85
2022/07/22 17:02:33;;;;;;;9.60;5.50;;;;;;;32.46;53.98;100343.45;658241;1276;138534;-85
2022/07/22 17:17:36;;;;;;;8.60;6.20;;;;;;;32.25;54.44;100336.67;657565;1277;139478;-85
2022/07/22 17:32:39;;;;;;;6.90;6.20;;;;;;;31.97;56.02;100340.35;657789;1277;137969;-85
2022/07/22 17:47:43;;;;;;;13.80;8.80;;;;;;;31.62;56.55;100336.83;656253;1276;138934;-84
2022/07/22 18:02:46;;;;;;;8.70;6.60;;;;;;;31.24;57.04;100337.69;656840;1276;138562;-86
2022/07/22 18:17:49;;;;;;;9.00;7.70;;;;;;;30.87;58.28;100334.63;656265;1277;137954;-86
2022/07/22 18:32:52;;;;;;;10.40;7.80;;;;;;;30.71;59.53;100330.82;656594;1276;138134;-87
2022/07/22 18:47:56;;;;;;;15.10;7.50;;;;;;;30.13;61.26;100329.77;657730;1276;138769;-86
2022/07/22 19:03:00;;;;;;;11.70;7.80;;;;;;;29.73;61.94;100336.71;657719;1277;139681;-87
2022/07/22 19:18:04;;;;;;;10.50;8.20;;;;;;;29.20;63.35;100347.73;658411;1277;138471;-87
2022/07/22 19:33:09;;;;;;;11.40;7.60;;;;;;;28.73;64.20;100353.54;657377;1278;139791;-85
2022/07/22 19:48:12;;;;;;;13.10;8.90;;;;;;;28.17;65.33;100355.92;658890;1277;138993;-85
2022/07/22 20:03:15;;;;;;;11.90;8.70;;;;;;;27.43;67.61;100369.39;657600;1277;138598;-85
2022/07/22 20:18:19;;;;;;;11.10;9.30;;;;;;;26.80;68.90;100375.35;659204;1277;138705;-85
2022/07/22 20:33:26;;;;;;;13.00;9.50;;;;;;;26.39;70.66;100372.93;658576;1277;139637;-85
2022/07/22 20:48:30;;;;;;;19.10;15.10;;;;;;;26.22;73.13;100384.98;658621;1277;138875;-84
2022/07/22 21:03:33;;;;;;;23.10;15.20;;;;;;;25.96;75.30;100385.89;656678;1277;138758;-84
2022/07/22 21:18:38;;;;;;;17.10;12.70;;;;;;;25.70;77.27;100392.67;657396;1277;139272;-84
2022/07/22 21:33:41;;;;;;;12.80;11.00;;;;;;;25.48;80.26;100407.17;658863;1277;140006;-85
2022/07/22 21:48:44;;;;;;;12.70;10.10;;;;;;;25.38;83.60;100428.14;659983;1277;142299;-85
2022/07/22 22:03:48;;;;;;;16.10;11.90;;;;;;;25.15;87.66;100445.25;660551;1277;139118;-86
2022/07/22 22:18:55;;;;;;;14.60;11.70;;;;;;;24.84;90.85;100439.77;659209;1277;139354;-84
2022/07/22 22:33:58;;;;;;;11.50;9.40;;;;;;;24.57;93.73;100441.34;661998;1277;140153;-84
2022/07/22 22:49:01;;;;;;;13.80;10.00;;;;;;;24.44;93.42;100442.94;660839;1275;139609;-83
2022/07/22 23:04:05;;;;;;;10.70;9.10;;;;;;;24.29;94.94;100441.14;660150;1277;140060;-83
2022/07/22 23:19:08;;;;;;;12.30;9.10;;;;;;;24.09;95.27;100434.14;659863;1277;140554;-84
2022/07/22 23:34:13;;;;;;;15.00;9.50;;;;;;;23.89;95.59;100433.71;659562;1277;139668;-83
2022/07/22 23:49:16;;;;;;;13.30;9.10;;;;;;;23.47;97.97;100436.16;660190;1277;139550;-84
